SBOSBO ZRH / LSZH
Speedbird OnlineSpeedbird Online ZRH / LSZH

Zürich Airport
13:31 19°C

Location Zurich, Switzerland
Latitude: 47.464699
Longitude: 8.54917
Local Time 13:31 on 12 Apr 2024
UTC +2 hours (Europe/Zurich)
Currency £1 equals CHF 1.14
METAR LSZH 121120Z 33004KT 270V360 CAVOK 18/08 Q1033 NOSIG
TAF TAF LSZH 120825Z 1209/1315 VRB02KT CAVOK TX22/1215Z TN06/1305Z TX26/1315Z PROB40 1302/1307 4000 MIFG NSC PROB30 1303/1307 1500 BCFG SCT002
Weather As Of 12 Apr 2024 13:31
Description Clear sky
Wind 7 km/h from North-West (330°)
Cloud Cover 0%
Precipitation Rain: none, Snow: none
Sunrise 06:42
Sunset 20:10
NOTAM 37 active NOTAM
Rotations During the last 90 days there were
456 flights from LHR
192 flights from LCY
460 flights to LHR
187 flights to LCY
Lounges Marhaba Lounge, 2
Aspire Lounge (Airport Center), Between Gates A & B
Prime class Lounge, Dock E
Aspire Lounge (Dock E) , Dock E, Midfield Terminal, Gates E
Web Airport Website | Wikipedia
Codes IATA: ZRH
ICAO: LSZH
Altitude 432 Meter / 1416 Feet
Distance 756 KM / 470 Miles
from London.
Runways
RunwayLength (m)Surface
102500Concrete
143300Concrete
163700Concrete
282500Concrete
323300Concrete
343700Concrete
Radio
TypeDescriptionFrequency
APPAPP118
ATISATIS125.725
CLDCLNC DEL121.8
DEPDEP125.95
GNDGND121.9
RMPAPRON121.75
TCATERMINAL127.75
TWRTWR118.1
Live ATC



Support Speedbird Online

© 2017-2024 Speedbird Online